Time;durP1;ratioP1;P1;durP2;ratioP2;P2;SDS_P1;SDS_P2;PMS_P1;PMS_P2;Temp;Humidity;BMP_temperature;BMP_pressure;BME280_temperature;BME280_humidity;BME280_pressure;Samples;Min_cycle;Max_cycle;Signal;HPM_P1;HPM_P2
2022/07/29 00:01:59;;;;;;;;;;;22.60;82.80;;;;;;4987249;28;20204;-63
2022/07/29 00:04:27;;;;;;;;;;;22.60;82.70;;;;;;4989422;28;20199;-63
2022/07/29 00:06:55;;;;;;;;;;;22.60;81.70;;;;;;5004392;28;20199;-63
2022/07/29 00:09:22;;;;;;;;;;;22.70;81.70;;;;;;4992112;28;20253;-63
2022/07/29 00:11:50;;;;;;;;;;;22.70;81.70;;;;;;4987193;28;20249;-63
2022/07/29 00:14:19;;;;;;;;;;;22.70;81.50;;;;;;5010688;28;20189;-63
2022/07/29 00:16:47;;;;;;;;;;;22.70;82.20;;;;;;4985012;28;20195;-63
2022/07/29 00:19:15;;;;;;;;;;;22.70;82.20;;;;;;4983689;28;20830;-63
2022/07/29 00:21:42;;;;;;;;;;;22.60;82.30;;;;;;4990101;28;20200;-63
2022/07/29 00:24:10;;;;;;;;;;;22.60;82.30;;;;;;4989642;28;20566;-63
2022/07/29 00:26:38;;;;;;;;;;;22.70;83.30;;;;;;4987440;28;20736;-63
2022/07/29 00:29:06;;;;;;;;;;;22.60;82.50;;;;;;4987721;28;20231;-62
2022/07/29 00:31:55;;;;;;;;;;;22.60;83.00;;;;;;5001802;28;20274;-63
2022/07/29 00:37:08;;;;;;;;;;;22.50;84.70;;;;;;4986671;28;20248;-62
2022/07/29 00:39:36;;;;;;;;;;;22.40;86.50;;;;;;4988613;28;20245;-62
2022/07/29 00:42:04;;;;;;;;;;;22.30;88.30;;;;;;4988288;28;20195;-64
2022/07/29 00:44:36;;;;;;;;;;;22.20;87.90;;;;;;4985807;28;20196;-62
2022/07/29 00:47:05;;;;;;;;;;;22.20;87.80;;;;;;4997940;28;20196;-62
2022/07/29 00:49:34;;;;;;;;;;;22.10;86.50;;;;;;4986062;28;20314;-62
2022/07/29 00:52:01;;;;;;;;;;;22.10;86.40;;;;;;4997154;28;20208;-63
2022/07/29 00:54:30;;;;;;;;;;;22.00;84.90;;;;;;4988550;28;20194;-63
2022/07/29 00:56:58;;;;;;;;;;;22.10;83.70;;;;;;4995632;28;20211;-64
2022/07/29 00:59:26;;;;;;;;;;;22.10;83.10;;;;;;4987485;28;20268;-64
2022/07/29 01:02:02;;;;;;;;;;;22.10;83.30;;;;;;4992384;28;20200;-63
2022/07/29 01:04:31;;;;;;;;;;;22.10;83.50;;;;;;4986599;28;20210;-64
2022/07/29 01:07:01;;;;;;;;;;;22.10;83.50;;;;;;4999953;28;20729;-63
2022/07/29 01:09:29;;;;;;;;;;;22.10;83.30;;;;;;4998373;28;20209;-63
2022/07/29 01:12:13;;;;;;;;;;;22.10;83.50;;;;;;4986790;28;20191;-63
2022/07/29 01:14:41;;;;;;;;;;;22.10;83.80;;;;;;4996574;28;20200;-63
2022/07/29 01:17:11;;;;;;;;;;;22.10;84.20;;;;;;4988094;28;20211;-64
2022/07/29 01:19:49;;;;;;;;;;;22.00;84.60;;;;;;5005079;28;20198;-63
2022/07/29 01:22:25;;;;;;;;;;;22.00;85.30;;;;;;4985252;28;20207;-64
2022/07/29 01:25:03;;;;;;;;;;;21.90;84.80;;;;;;4986477;28;20192;-63
2022/07/29 01:27:40;;;;;;;;;;;21.90;84.60;;;;;;4987749;28;20209;-62
2022/07/29 01:30:10;;;;;;;;;;;22.00;84.60;;;;;;4986860;28;20523;-62
2022/07/29 01:32:41;;;;;;;;;;;21.90;84.80;;;;;;4996626;28;20275;-63
2022/07/29 01:35:14;;;;;;;;;;;22.00;84.90;;;;;;4993709;28;20193;-63
2022/07/29 01:37:44;;;;;;;;;;;21.90;85.40;;;;;;4994943;28;20201;-62
2022/07/29 01:40:14;;;;;;;;;;;21.90;85.30;;;;;;4988443;28;20208;-63
2022/07/29 01:42:44;;;;;;;;;;;21.90;85.80;;;;;;4997481;28;20759;-63
2022/07/29 01:45:15;;;;;;;;;;;22.00;86.90;;;;;;4988312;28;20187;-63
2022/07/29 01:47:45;;;;;;;;;;;21.90;87.10;;;;;;4986567;28;20199;-63
2022/07/29 01:50:15;;;;;;;;;;;21.90;88.20;;;;;;4994874;28;20193;-62
2022/07/29 01:52:45;;;;;;;;;;;21.80;88.90;;;;;;4986389;28;20620;-63
2022/07/29 01:55:14;;;;;;;;;;;21.70;88.90;;;;;;4995307;28;20190;-63
2022/07/29 01:57:43;;;;;;;;;;;21.70;89.80;;;;;;4999444;28;20200;-63
2022/07/29 02:00:14;;;;;;;;;;;21.60;89.80;;;;;;4986348;28;20201;-64
2022/07/29 02:02:43;;;;;;;;;;;21.60;90.10;;;;;;4981701;28;20200;-63
2022/07/29 02:05:13;;;;;;;;;;;21.60;90.00;;;;;;4983262;28;20338;-63
2022/07/29 02:07:41;;;;;;;;;;;21.70;90.40;;;;;;4985858;28;20736;-63
2022/07/29 02:10:09;;;;;;;;;;;21.50;90.60;;;;;;4990085;28;20204;-63
2022/07/29 02:12:38;;;;;;;;;;;21.50;90.80;;;;;;4983019;28;20196;-63
2022/07/29 02:15:06;;;;;;;;;;;21.50;91.00;;;;;;5001452;28;20208;-63
2022/07/29 02:17:41;;;;;;;;;;;21.40;91.40;;;;;;4985383;28;20205;-63
2022/07/29 02:20:10;;;;;;;;;;;21.30;91.80;;;;;;4986019;28;20204;-63
2022/07/29 02:22:38;;;;;;;;;;;21.30;92.70;;;;;;4981796;28;20751;-63
2022/07/29 02:25:07;;;;;;;;;;;21.20;94.10;;;;;;4991417;28;20195;-63
2022/07/29 02:27:42;;;;;;;;;;;21.20;95.90;;;;;;4986374;28;20114;-63
2022/07/29 02:30:11;;;;;;;;;;;21.00;96.50;;;;;;4986314;28;20229;-63
2022/07/29 02:32:42;;;;;;;;;;;21.00;97.80;;;;;;4985136;28;20546;-63
2022/07/29 02:35:10;;;;;;;;;;;21.00;99.10;;;;;;4983441;28;20294;-64
2022/07/29 02:37:38;;;;;;;;;;;21.00;99.90;;;;;;4994940;28;20204;-63
2022/07/29 02:40:09;;;;;;;;;;;20.80;99.90;;;;;;4991496;28;20205;-63
2022/07/29 02:42:38;;;;;;;;;;;20.50;99.90;;;;;;4984751;28;20116;-63
2022/07/29 02:45:07;;;;;;;;;;;20.20;99.90;;;;;;4987336;28;20186;-63
2022/07/29 02:47:37;;;;;;;;;;;20.00;99.90;;;;;;4984622;28;20817;-63
2022/07/29 02:50:12;;;;;;;;;;;19.80;99.90;;;;;;4983714;28;20092;-64
2022/07/29 02:52:41;;;;;;;;;;;19.80;99.90;;;;;;4984626;28;25143;-63
2022/07/29 02:55:12;;;;;;;;;;;19.70;99.90;;;;;;4993183;28;20543;-64
2022/07/29 02:57:42;;;;;;;;;;;19.70;99.90;;;;;;4986081;28;20275;-63
2022/07/29 03:00:23;;;;;;;;;;;19.60;99.90;;;;;;4987461;28;20649;-63
2022/07/29 03:02:53;;;;;;;;;;;19.50;99.90;;;;;;4982089;28;20248;-63
2022/07/29 03:05:23;;;;;;;;;;;19.30;99.90;;;;;;4983007;28;20192;-63
2022/07/29 03:07:53;;;;;;;;;;;19.10;99.90;;;;;;4988725;28;20199;-63
2022/07/29 03:10:21;;;;;;;;;;;19.00;99.90;;;;;;4986330;28;20200;-63
2022/07/29 03:12:49;;;;;;;;;;;19.00;99.90;;;;;;4991625;28;20207;-63
2022/07/29 03:15:17;;;;;;;;;;;18.90;99.90;;;;;;4985226;28;20193;-62
2022/07/29 03:17:45;;;;;;;;;;;18.80;99.90;;;;;;4980854;28;20082;-66
2022/07/29 03:20:13;;;;;;;;;;;18.70;99.90;;;;;;4999728;28;20805;-66
2022/07/29 03:22:43;;;;;;;;;;;18.70;99.90;;;;;;4991929;28;20217;-65
2022/07/29 03:25:11;;;;;;;;;;;18.80;99.90;;;;;;4982888;28;20100;-66
2022/07/29 03:27:39;;;;;;;;;;;18.90;99.90;;;;;;4996767;28;25052;-65
2022/07/29 03:30:08;;;;;;;;;;;18.80;99.90;;;;;;4990446;28;20108;-63
2022/07/29 03:32:36;;;;;;;;;;;18.60;99.90;;;;;;4984525;28;20656;-64
2022/07/29 03:35:05;;;;;;;;;;;18.50;99.90;;;;;;4984936;28;20214;-62
2022/07/29 03:37:33;;;;;;;;;;;18.50;99.90;;;;;;4984809;28;20223;-63
2022/07/29 03:40:04;;;;;;;;;;;18.40;99.90;;;;;;4991037;28;20207;-63
2022/07/29 03:42:33;;;;;;;;;;;18.40;99.90;;;;;;4998846;28;20692;-65
2022/07/29 03:45:03;;;;;;;;;;;18.40;99.90;;;;;;4985024;28;20203;-64
2022/07/29 03:47:32;;;;;;;;;;;18.40;99.90;;;;;;4990369;28;20241;-63
2022/07/29 03:50:19;;;;;;;;;;;18.70;99.90;;;;;;4983630;28;20199;-64
2022/07/29 03:52:47;;;;;;;;;;;18.60;99.90;;;;;;4985049;28;20284;-63
2022/07/29 03:55:16;;;;;;;;;;;18.60;99.90;;;;;;4984511;28;20324;-63
2022/07/29 03:57:45;;;;;;;;;;;18.60;99.90;;;;;;4996980;28;20211;-64
2022/07/29 04:00:15;;;;;;;;;;;18.60;99.90;;;;;;4982623;28;20210;-64
2022/07/29 04:02:46;;;;;;;;;;;18.50;99.90;;;;;;4964715;28;20212;-64
2022/07/29 04:05:14;;;;;;;;;;;18.40;99.90;;;;;;4983272;28;20257;-63
2022/07/29 04:07:44;;;;;;;;;;;18.40;99.90;;;;;;4987603;28;20215;-63
2022/07/29 04:10:12;;;;;;;;;;;18.30;99.90;;;;;;5015665;28;20202;-63
2022/07/29 04:12:41;;;;;;;;;;;18.20;99.90;;;;;;4988282;28;20213;-64
2022/07/29 04:15:09;;;;;;;;;;;18.20;99.90;;;;;;4999231;28;20273;-63
2022/07/29 04:17:37;;;;;;;;;;;18.20;99.90;;;;;;4984010;28;20254;-63
2022/07/29 04:20:05;;;;;;;;;;;18.10;99.90;;;;;;4991865;28;20170;-63
2022/07/29 04:22:33;;;;;;;;;;;18.00;99.90;;;;;;4988283;28;20250;-63
2022/07/29 04:25:00;;;;;;;;;;;18.30;99.90;;;;;;4978665;28;20269;-63
2022/07/29 04:27:31;;;;;;;;;;;18.40;99.90;;;;;;4974496;28;20215;-63
2022/07/29 04:30:00;;;;;;;;;;;18.30;99.90;;;;;;4976098;28;20208;-63
2022/07/29 04:32:28;;;;;;;;;;;18.30;99.90;;;;;;4977227;28;20125;-64
2022/07/29 04:34:55;;;;;;;;;;;18.50;99.90;;;;;;4977315;28;20255;-63
2022/07/29 04:37:23;;;;;;;;;;;18.70;99.90;;;;;;4977262;28;20294;-63
2022/07/29 04:39:51;;;;;;;;;;;18.80;99.90;;;;;;4975013;28;20208;-63
2022/07/29 04:42:19;;;;;;;;;;;19.10;99.90;;;;;;4977049;28;20293;-63
2022/07/29 04:44:54;;;;;;;;;;;19.20;99.90;;;;;;4977261;28;20199;-63
2022/07/29 04:47:23;;;;;;;;;;;19.20;99.90;;;;;;4976763;28;20855;-62
2022/07/29 04:49:51;;;;;;;;;;;19.10;99.90;;;;;;4974748;28;20252;-63
2022/07/29 04:52:19;;;;;;;;;;;19.20;99.90;;;;;;4976364;28;20713;-63
2022/07/29 04:54:47;;;;;;;;;;;19.10;99.90;;;;;;4976579;28;20707;-64
2022/07/29 04:57:15;;;;;;;;;;;19.00;99.90;;;;;;4975203;28;20838;-63
2022/07/29 04:59:43;;;;;;;;;;;19.00;99.90;;;;;;4971118;28;20230;-66
2022/07/29 05:02:11;;;;;;;;;;;18.80;99.90;;;;;;4975061;28;20204;-64
2022/07/29 05:04:40;;;;;;;;;;;18.80;99.90;;;;;;4974325;28;20196;-64
2022/07/29 05:07:08;;;;;;;;;;;18.70;99.90;;;;;;4972974;28;20207;-64
2022/07/29 05:09:36;;;;;;;;;;;18.60;99.90;;;;;;4972781;28;20261;-63
2022/07/29 05:12:03;;;;;;;;;;;18.60;99.90;;;;;;4974550;28;20203;-63
2022/07/29 05:14:31;;;;;;;;;;;18.70;99.90;;;;;;4974552;28;20212;-64
2022/07/29 05:16:59;;;;;;;;;;;18.70;99.90;;;;;;4957816;28;20199;-63
2022/07/29 05:19:27;;;;;;;;;;;18.60;99.90;;;;;;4973567;28;20744;-63
2022/07/29 05:21:56;;;;;;;;;;;18.70;99.90;;;;;;4971870;28;20294;-63
2022/07/29 05:24:24;;;;;;;;;;;18.70;99.90;;;;;;4973835;28;20207;-63
2022/07/29 05:26:52;;;;;;;;;;;18.70;99.90;;;;;;4972935;28;20199;-63
2022/07/29 05:29:19;;;;;;;;;;;18.70;99.90;;;;;;4972333;28;20208;-63
2022/07/29 05:32:07;;;;;;;;;;;18.70;99.90;;;;;;4973588;28;20723;-63
2022/07/29 05:34:35;;;;;;;;;;;18.80;99.90;;;;;;4972894;28;20223;-63
2022/07/29 05:37:05;;;;;;;;;;;18.80;99.90;;;;;;4973384;28;20246;-63
2022/07/29 05:39:32;;;;;;;;;;;18.90;99.90;;;;;;4972669;28;20212;-63
2022/07/29 05:42:15;;;;;;;;;;;19.00;99.90;;;;;;4972158;28;20218;-63
2022/07/29 05:44:43;;;;;;;;;;;19.10;99.90;;;;;;4973512;28;20220;-63
2022/07/29 05:47:11;;;;;;;;;;;19.20;99.90;;;;;;4972117;28;20253;-63
2022/07/29 05:49:39;;;;;;;;;;;19.30;99.90;;;;;;4971697;28;20207;-63
2022/07/29 05:52:08;;;;;;;;;;;19.30;99.90;;;;;;4971190;28;20208;-63
2022/07/29 05:54:36;;;;;;;;;;;19.50;99.90;;;;;;4971039;28;20227;-64
2022/07/29 05:57:04;;;;;;;;;;;19.60;99.90;;;;;;4972871;28;20210;-65
2022/07/29 05:59:35;;;;;;;;;;;19.70;99.90;;;;;;4974031;28;20232;-64
2022/07/29 06:02:04;;;;;;;;;;;19.70;99.90;;;;;;4972851;28;20253;-63
2022/07/29 06:04:33;;;;;;;;;;;19.80;99.90;;;;;;4975701;28;20214;-63
2022/07/29 06:07:01;;;;;;;;;;;19.90;99.90;;;;;;4965513;28;20200;-65
2022/07/29 06:09:30;;;;;;;;;;;20.10;99.90;;;;;;4974165;28;20646;-64
2022/07/29 06:11:58;;;;;;;;;;;20.20;99.90;;;;;;4975345;28;20377;-64
2022/07/29 06:14:26;;;;;;;;;;;20.30;99.90;;;;;;4975591;28;20544;-63
2022/07/29 06:16:54;;;;;;;;;;;20.40;99.90;;;;;;4974370;28;20842;-63
2022/07/29 06:19:22;;;;;;;;;;;20.60;99.90;;;;;;4974003;28;20208;-63
2022/07/29 06:21:49;;;;;;;;;;;20.70;99.90;;;;;;4973693;28;20700;-62
2022/07/29 06:24:17;;;;;;;;;;;20.70;99.90;;;;;;4974917;28;20292;-63
2022/07/29 06:26:47;;;;;;;;;;;20.70;99.90;;;;;;4970727;28;20204;-63
2022/07/29 06:29:15;;;;;;;;;;;20.90;99.90;;;;;;4972037;28;20204;-64
2022/07/29 06:31:42;;;;;;;;;;;21.00;99.90;;;;;;4972577;28;20626;-65
2022/07/29 06:34:10;;;;;;;;;;;21.10;99.90;;;;;;4971907;28;20258;-65
2022/07/29 06:36:39;;;;;;;;;;;21.30;99.90;;;;;;4971121;28;20200;-66
2022/07/29 06:39:08;;;;;;;;;;;21.40;99.90;;;;;;4973747;28;20211;-64
2022/07/29 06:41:38;;;;;;;;;;;21.50;99.90;;;;;;4986327;28;20325;-64
2022/07/29 06:44:07;;;;;;;;;;;21.70;99.90;;;;;;4989064;28;20211;-64
2022/07/29 06:46:36;;;;;;;;;;;21.90;99.90;;;;;;4990001;28;20223;-64
2022/07/29 06:49:04;;;;;;;;;;;21.90;99.90;;;;;;4989641;28;20214;-64
2022/07/29 06:51:32;;;;;;;;;;;22.10;99.90;;;;;;4988742;28;20200;-64
2022/07/29 06:54:00;;;;;;;;;;;22.20;99.90;;;;;;4989509;28;20273;-64
2022/07/29 06:56:30;;;;;;;;;;;22.30;99.90;;;;;;4989866;28;20206;-64
2022/07/29 06:58:58;;;;;;;;;;;22.50;99.90;;;;;;4989849;28;20203;-64
2022/07/29 07:01:29;;;;;;;;;;;22.50;99.90;;;;;;4989933;28;20290;-64
2022/07/29 07:03:57;;;;;;;;;;;22.60;99.90;;;;;;4989569;28;20831;-64
2022/07/29 07:06:25;;;;;;;;;;;22.70;99.90;;;;;;4989838;28;20265;-64
2022/07/29 07:08:52;;;;;;;;;;;22.80;99.40;;;;;;4989817;28;20215;-64
2022/07/29 07:11:20;;;;;;;;;;;22.80;98.80;;;;;;4989770;28;20561;-64
2022/07/29 07:13:48;;;;;;;;;;;22.80;98.80;;;;;;4989638;28;20678;-65
2022/07/29 07:16:16;;;;;;;;;;;22.80;98.80;;;;;;4989753;28;20204;-64
2022/07/29 07:18:45;;;;;;;;;;;22.70;98.50;;;;;;4989760;28;20195;-64
2022/07/29 07:21:13;;;;;;;;;;;22.80;98.50;;;;;;4989631;28;20206;-64
2022/07/29 07:23:46;;;;;;;;;;;23.00;98.40;;;;;;4989231;28;20315;-64
2022/07/29 07:26:14;;;;;;;;;;;23.00;98.10;;;;;;4989331;28;20218;-64
2022/07/29 07:28:42;;;;;;;;;;;23.10;98.90;;;;;;4988989;28;20199;-64
2022/07/29 07:31:10;;;;;;;;;;;23.30;98.00;;;;;;4989196;28;20261;-64
2022/07/29 07:33:37;;;;;;;;;;;23.40;98.40;;;;;;4989069;28;20225;-64
2022/07/29 07:36:07;;;;;;;;;;;23.60;97.70;;;;;;4989336;28;20212;-64
2022/07/29 07:38:35;;;;;;;;;;;23.60;97.00;;;;;;4989339;28;20555;-64
2022/07/29 07:41:03;;;;;;;;;;;23.60;96.70;;;;;;4989174;28;20681;-64
2022/07/29 07:43:30;;;;;;;;;;;23.50;97.10;;;;;;4988994;28;20238;-64
2022/07/29 07:45:58;;;;;;;;;;;23.60;96.70;;;;;;4989185;28;20798;-64
2022/07/29 07:48:26;;;;;;;;;;;23.50;95.80;;;;;;4989430;28;20199;-64
2022/07/29 07:50:54;;;;;;;;;;;23.50;96.30;;;;;;4989312;28;20203;-64
2022/07/29 07:53:23;;;;;;;;;;;23.60;96.30;;;;;;4988875;28;20196;-64
2022/07/29 07:55:51;;;;;;;;;;;23.80;96.40;;;;;;4989141;28;20225;-64
2022/07/29 07:58:37;;;;;;;;;;;24.00;96.00;;;;;;4989173;28;20279;-64
2022/07/29 08:01:05;;;;;;;;;;;24.30;95.60;;;;;;4988975;28;20207;-64
2022/07/29 08:03:33;;;;;;;;;;;24.50;95.00;;;;;;4992298;28;20204;-64
2022/07/29 08:06:01;;;;;;;;;;;24.50;94.50;;;;;;4974775;28;20235;-64
2022/07/29 08:08:30;;;;;;;;;;;24.40;94.40;;;;;;4992279;28;20246;-64
2022/07/29 08:10:58;;;;;;;;;;;24.40;94.20;;;;;;4992459;28;20208;-64
2022/07/29 08:13:31;;;;;;;;;;;24.60;95.10;;;;;;4992022;28;20203;-64
2022/07/29 08:16:01;;;;;;;;;;;24.70;94.80;;;;;;4992100;28;20203;-64
2022/07/29 08:18:30;;;;;;;;;;;24.90;95.00;;;;;;4992336;28;20278;-64
2022/07/29 08:20:58;;;;;;;;;;;25.10;94.20;;;;;;4992257;28;20534;-65
2022/07/29 08:23:34;;;;;;;;;;;25.30;94.20;;;;;;4991630;28;20216;-65
2022/07/29 08:26:17;;;;;;;;;;;25.40;93.60;;;;;;4992070;28;20196;-64
2022/07/29 08:28:45;;;;;;;;;;;25.20;94.00;;;;;;4991726;28;20200;-64
2022/07/29 08:31:13;;;;;;;;;;;25.40;93.50;;;;;;4992143;28;20253;-64
2022/07/29 08:33:42;;;;;;;;;;;25.50;93.60;;;;;;4991910;28;20204;-65
2022/07/29 08:36:09;;;;;;;;;;;25.50;93.70;;;;;;4991812;28;20261;-64
2022/07/29 08:38:37;;;;;;;;;;;25.70;93.30;;;;;;4992302;28;20203;-64
2022/07/29 08:41:05;;;;;;;;;;;25.90;93.10;;;;;;4992427;28;20204;-65
2022/07/29 08:43:37;;;;;;;;;;;26.00;92.70;;;;;;4991791;28;20200;-65
2022/07/29 08:46:04;;;;;;;;;;;26.10;92.90;;;;;;4992255;28;20207;-65
2022/07/29 08:48:33;;;;;;;;;;;26.40;93.10;;;;;;4991874;28;20200;-64
2022/07/29 08:51:01;;;;;;;;;;;26.60;92.90;;;;;;4991916;28;20200;-64
2022/07/29 08:53:31;;;;;;;;;;;26.80;93.00;;;;;;4991572;28;20264;-64
2022/07/29 08:55:59;;;;;;;;;;;27.00;92.50;;;;;;4991485;28;20252;-64
2022/07/29 08:58:27;;;;;;;;;;;27.20;92.20;;;;;;4991795;28;20294;-64
2022/07/29 09:00:57;;;;;;;;;;;27.30;92.40;;;;;;5065647;22;20237;-66
2022/07/29 09:03:30;;;;;;;;;;;27.40;91.60;;;;;;5087021;28;20197;-67
2022/07/29 09:05:58;;;;;;;;;;;27.60;92.10;;;;;;5093849;28;20198;-66
2022/07/29 09:08:27;;;;;;;;;;;27.60;92.00;;;;;;5093836;28;20240;-66
2022/07/29 09:10:55;;;;;;;;;;;27.90;91.50;;;;;;5093834;28;20233;-66
2022/07/29 09:13:23;;;;;;;;;;;28.00;91.60;;;;;;5092912;28;20197;-67
2022/07/29 09:15:50;;;;;;;;;;;27.90;90.60;;;;;;5093585;28;20673;-67
2022/07/29 09:24:03;;;;;;;;;;;28.30;90.80;;;;;;5053276;28;20213;-67
2022/07/29 09:26:31;;;;;;;;;;;28.60;90.80;;;;;;5049190;28;20229;-67
2022/07/29 09:28:59;;;;;;;;;;;28.60;90.70;;;;;;5056112;28;20259;-67
2022/07/29 09:31:33;;;;;;;;;;;28.80;90.90;;;;;;5059195;28;20205;-67
2022/07/29 09:34:01;;;;;;;;;;;28.80;90.90;;;;;;5043980;22;20219;-68
2022/07/29 09:36:30;;;;;;;;;;;28.80;90.10;;;;;;4994971;28;20212;-69
2022/07/29 09:38:59;;;;;;;;;;;29.10;90.70;;;;;;4985986;28;20731;-68
2022/07/29 09:41:27;;;;;;;;;;;29.10;91.00;;;;;;4986269;28;20200;-68
2022/07/29 09:43:55;;;;;;;;;;;29.20;90.30;;;;;;4985930;28;20204;-68
2022/07/29 09:46:24;;;;;;;;;;;29.30;90.30;;;;;;4985588;28;20200;-68
2022/07/29 09:49:08;;;;;;;;;;;29.40;90.20;;;;;;4985688;28;20683;-69
2022/07/29 09:51:37;;;;;;;;;;;29.80;89.70;;;;;;4985645;28;20204;-68
2022/07/29 09:54:20;;;;;;;;;;;30.30;89.00;;;;;;4984941;28;20586;-68
2022/07/29 09:56:48;;;;;;;;;;;30.40;90.10;;;;;;4985659;28;20199;-69
2022/07/29 09:59:16;;;;;;;;;;;30.60;88.10;;;;;;4974602;28;20201;-68
2022/07/29 10:01:44;;;;;;;;;;;30.50;87.60;;;;;;4980696;28;20204;-68
2022/07/29 10:04:12;;;;;;;;;;;30.30;88.20;;;;;;4967892;28;20211;-69
2022/07/29 10:06:55;;;;;;;;;;;30.40;86.80;;;;;;4985387;28;20222;-68
2022/07/29 10:09:32;;;;;;;;;;;30.40;86.40;;;;;;4985308;28;20203;-68
2022/07/29 10:12:04;;;;;;;;;;;30.20;88.10;;;;;;4985113;28;20211;-68
2022/07/29 10:14:33;;;;;;;;;;;29.90;87.80;;;;;;4985408;28;20632;-68
2022/07/29 10:17:01;;;;;;;;;;;29.80;88.60;;;;;;4985203;28;20265;-67
2022/07/29 10:19:30;;;;;;;;;;;29.70;89.40;;;;;;4985317;28;20208;-68
2022/07/29 10:21:59;;;;;;;;;;;29.60;90.00;;;;;;4984839;28;20628;-68
2022/07/29 10:24:27;;;;;;;;;;;29.70;89.50;;;;;;4986202;28;20204;-69
2022/07/29 10:26:57;;;;;;;;;;;29.80;88.90;;;;;;4985660;28;20718;-68
2022/07/29 10:29:25;;;;;;;;;;;29.80;89.30;;;;;;4977005;28;20336;-69
2022/07/29 10:31:58;;;;;;;;;;;29.60;88.70;;;;;;4970067;28;20615;-69
2022/07/29 10:34:30;;;;;;;;;;;30.00;88.00;;;;;;4971746;28;20212;-69
2022/07/29 10:37:02;;;;;;;;;;;30.60;86.80;;;;;;4972204;28;20613;-69
2022/07/29 10:39:40;;;;;;;;;;;30.70;88.50;;;;;;4947316;28;20220;-68
2022/07/29 10:42:18;;;;;;;;;;;31.10;84.00;;;;;;4953175;28;20200;-68
2022/07/29 10:44:56;;;;;;;;;;;31.50;85.90;;;;;;4953471;28;20287;-68
2022/07/29 10:47:27;;;;;;;;;;;31.40;85.10;;;;;;4953457;28;20208;-69
2022/07/29 10:49:59;;;;;;;;;;;31.20;85.00;;;;;;4953329;28;20587;-70
2022/07/29 10:52:46;;;;;;;;;;;31.30;84.70;;;;;;4953066;28;20209;-68
2022/07/29 10:55:29;;;;;;;;;;;31.40;84.90;;;;;;4953142;28;20291;-69
2022/07/29 10:58:12;;;;;;;;;;;31.50;84.70;;;;;;4953283;28;20200;-69
2022/07/29 11:00:41;;;;;;;;;;;31.20;83.70;;;;;;4959113;28;20661;-68
2022/07/29 11:03:27;;;;;;;;;;;31.40;85.30;;;;;;4970219;28;20211;-69
2022/07/29 11:05:56;;;;;;;;;;;31.80;84.60;;;;;;4971217;28;20208;-69
2022/07/29 11:08:26;;;;;;;;;;;31.80;84.10;;;;;;4971674;28;20223;-69
2022/07/29 11:11:29;;;;;;;;;;;31.80;83.90;;;;;;4971896;28;20224;-68
2022/07/29 11:14:00;;;;;;;;;;;32.10;84.00;;;;;;4991699;28;20218;-69
2022/07/29 11:16:48;;;;;;;;;;;32.20;82.30;;;;;;4991589;28;20216;-68
2022/07/29 11:19:20;;;;;;;;;;;32.40;81.90;;;;;;4979597;28;20295;-69
2022/07/29 11:21:57;;;;;;;;;;;32.70;81.70;;;;;;4971467;28;20594;-69
2022/07/29 11:24:28;;;;;;;;;;;32.00;82.70;;;;;;4971496;28;20211;-68
2022/07/29 11:27:10;;;;;;;;;;;31.50;82.80;;;;;;4971503;28;20204;-69
2022/07/29 11:29:48;;;;;;;;;;;31.50;83.30;;;;;;4962224;28;20204;-68
2022/07/29 11:32:19;;;;;;;;;;;31.90;81.90;;;;;;4953430;28;20206;-71
2022/07/29 11:35:10;;;;;;;;;;;32.40;82.10;;;;;;5033005;28;20280;-69
2022/07/29 11:37:45;;;;;;;;;;;31.90;81.30;;;;;;5072932;28;20698;-69
2022/07/29 11:40:22;;;;;;;;;;;32.50;82.70;;;;;;5072539;28;20197;-69
2022/07/29 11:42:51;;;;;;;;;;;32.60;82.20;;;;;;5071552;28;20259;-69
2022/07/29 11:45:27;;;;;;;;;;;32.50;81.40;;;;;;5072369;28;20202;-69
2022/07/29 11:48:18;;;;;;;;;;;32.20;80.80;;;;;;5072662;28;20380;-69
2022/07/29 11:50:59;;;;;;;;;;;32.30;80.40;;;;;;5072674;28;20212;-68
2022/07/29 11:53:27;;;;;;;;;;;32.70;82.40;;;;;;5072031;28;20201;-69
2022/07/29 11:56:00;;;;;;;;;;;33.20;80.00;;;;;;5072173;28;20206;-69
2022/07/29 11:58:30;;;;;;;;;;;33.50;80.30;;;;;;5066792;28;20199;-69
2022/07/29 12:01:00;;;;;;;;;;;33.10;79.70;;;;;;5065589;28;20194;-69
2022/07/29 12:03:32;;;;;;;;;;;33.20;79.20;;;;;;5046600;28;20214;-69
2022/07/29 12:06:03;;;;;;;;;;;33.50;79.70;;;;;;5047067;28;20546;-69
2022/07/29 12:08:40;;;;;;;;;;;33.40;79.20;;;;;;5053224;28;20210;-69
2022/07/29 12:11:15;;;;;;;;;;;33.00;79.50;;;;;;5053127;28;20194;-69
2022/07/29 12:13:43;;;;;;;;;;;32.90;79.90;;;;;;5052655;28;20210;-68
2022/07/29 12:16:13;;;;;;;;;;;32.80;80.10;;;;;;5052759;28;20663;-69
2022/07/29 12:18:41;;;;;;;;;;;33.10;78.90;;;;;;5052791;28;20181;-69
2022/07/29 12:21:09;;;;;;;;;;;33.50;79.10;;;;;;5054380;28;20540;-69
2022/07/29 12:23:39;;;;;;;;;;;33.70;79.70;;;;;;5057939;28;20202;-69
2022/07/29 12:26:08;;;;;;;;;;;34.10;78.90;;;;;;5055599;28;20177;-69
2022/07/29 12:28:38;;;;;;;;;;;34.10;78.10;;;;;;5052643;28;20181;-69
2022/07/29 12:31:06;;;;;;;;;;;34.20;77.60;;;;;;5051625;28;20200;-70
2022/07/29 12:33:36;;;;;;;;;;;33.70;77.40;;;;;;5051081;28;20230;-69
2022/07/29 12:36:04;;;;;;;;;;;33.50;77.10;;;;;;4970197;28;20184;-69
2022/07/29 12:38:35;;;;;;;;;;;33.70;79.30;;;;;;4970054;28;20269;-68
2022/07/29 12:41:03;;;;;;;;;;;34.00;75.80;;;;;;4970134;28;20632;-69
2022/07/29 12:43:32;;;;;;;;;;;34.40;76.70;;;;;;4970003;28;20204;-70
2022/07/29 12:46:11;;;;;;;;;;;34.50;76.20;;;;;;4969839;28;20233;-69
2022/07/29 12:48:41;;;;;;;;;;;35.20;74.60;;;;;;4969955;28;20282;-69
2022/07/29 12:51:11;;;;;;;;;;;35.80;74.20;;;;;;4970053;28;20175;-69
2022/07/29 12:53:39;;;;;;;;;;;36.20;73.90;;;;;;4969551;28;20247;-69
2022/07/29 12:56:15;;;;;;;;;;;35.90;72.90;;;;;;4969881;28;20629;-69
2022/07/29 12:59:12;;;;;;;;;;;36.20;72.60;;;;;;4963024;28;20199;-69
2022/07/29 13:01:39;;;;;;;;;;;36.70;73.00;;;;;;4959675;28;20201;-69
2022/07/29 13:04:09;;;;;;;;;;;36.20;72.10;;;;;;4969885;28;20272;-69
2022/07/29 13:06:38;;;;;;;;;;;35.90;72.60;;;;;;4969707;28;20196;-68
2022/07/29 13:09:09;;;;;;;;;;;35.70;72.60;;;;;;4969987;28;20196;-69
2022/07/29 13:11:39;;;;;;;;;;;35.50;71.60;;;;;;4969786;28;20179;-69
2022/07/29 13:14:12;;;;;;;;;;;35.60;72.90;;;;;;4969434;28;20213;-68
2022/07/29 13:16:55;;;;;;;;;;;35.50;72.30;;;;;;4969574;28;20193;-69
2022/07/29 13:19:33;;;;;;;;;;;36.00;71.30;;;;;;4969558;28;20182;-69
2022/07/29 13:22:01;;;;;;;;;;;36.30;71.20;;;;;;4969534;28;20217;-68
2022/07/29 13:24:28;;;;;;;;;;;36.50;71.50;;;;;;4969493;28;20582;-70
2022/07/29 13:26:57;;;;;;;;;;;36.80;70.60;;;;;;4969524;28;20201;-69
2022/07/29 13:29:26;;;;;;;;;;;36.30;70.00;;;;;;4958992;28;20202;-68
2022/07/29 13:31:58;;;;;;;;;;;35.90;71.80;;;;;;4965197;28;20187;-69
2022/07/29 13:34:28;;;;;;;;;;;35.50;70.60;;;;;;4969329;28;20243;-70
2022/07/29 13:36:56;;;;;;;;;;;35.10;70.30;;;;;;4969261;28;20203;-69
2022/07/29 13:39:23;;;;;;;;;;;34.50;71.20;;;;;;4969520;28;20190;-69
2022/07/29 13:41:52;;;;;;;;;;;34.30;72.20;;;;;;4969552;28;20754;-69
2022/07/29 13:44:20;;;;;;;;;;;34.30;72.20;;;;;;4969275;28;20217;-69
2022/07/29 13:46:47;;;;;;;;;;;34.00;72.40;;;;;;4969465;28;20175;-68
2022/07/29 13:49:15;;;;;;;;;;;33.60;72.40;;;;;;4969311;28;20292;-69
2022/07/29 13:51:45;;;;;;;;;;;33.00;73.70;;;;;;4969836;28;20175;-70
2022/07/29 13:54:12;;;;;;;;;;;32.30;76.00;;;;;;4969070;28;20677;-69
2022/07/29 13:56:40;;;;;;;;;;;31.30;78.80;;;;;;4969133;28;20234;-69
2022/07/29 13:59:08;;;;;;;;;;;30.50;81.10;;;;;;4961714;28;20570;-68
2022/07/29 14:01:36;;;;;;;;;;;30.10;82.60;;;;;;4956350;28;20205;-69
2022/07/29 14:04:04;;;;;;;;;;;29.70;83.70;;;;;;4969305;28;20207;-68
2022/07/29 14:06:32;;;;;;;;;;;29.30;85.10;;;;;;4970165;28;20204;-69
2022/07/29 14:09:01;;;;;;;;;;;29.00;85.40;;;;;;4972677;28;20204;-69
2022/07/29 14:11:29;;;;;;;;;;;28.80;86.90;;;;;;4972607;28;20196;-70
2022/07/29 14:13:57;;;;;;;;;;;28.60;88.90;;;;;;4972165;28;20204;-69
2022/07/29 14:16:24;;;;;;;;;;;28.20;90.40;;;;;;4972674;28;20200;-68
2022/07/29 14:18:52;;;;;;;;;;;28.10;90.80;;;;;;4972175;28;20212;-69
2022/07/29 14:21:20;;;;;;;;;;;28.10;90.90;;;;;;4972333;28;20204;-69
2022/07/29 14:23:48;;;;;;;;;;;28.10;91.10;;;;;;4972012;28;20192;-69
2022/07/29 14:26:17;;;;;;;;;;;28.10;90.90;;;;;;4972058;28;20200;-69
2022/07/29 14:28:50;;;;;;;;;;;28.00;90.90;;;;;;4963898;28;20208;-68
2022/07/29 14:31:18;;;;;;;;;;;27.70;91.20;;;;;;4962865;28;20262;-69
2022/07/29 14:33:46;;;;;;;;;;;27.80;91.10;;;;;;4971614;28;20243;-68
2022/07/29 14:36:16;;;;;;;;;;;27.50;90.20;;;;;;4972223;28;20337;-69
2022/07/29 14:38:43;;;;;;;;;;;27.30;89.00;;;;;;4971904;28;20200;-68
2022/07/29 14:41:11;;;;;;;;;;;27.30;89.30;;;;;;4972161;28;20204;-69
2022/07/29 14:43:40;;;;;;;;;;;27.00;89.70;;;;;;4971583;28;20196;-69